sensor_id;sensor_type;location;lat;lon;timestamp;pressure;altitude;pressure_sealevel;temperature;humidity
59106;BME280;44891;50.204;8.132;2023-05-17T00:02:42;98822.84;;;7.92;80.58
59106;BME280;44891;50.204;8.132;2023-05-17T00:06:45;98823.34;;;7.62;81.67
59106;BME280;44891;50.204;8.132;2023-05-17T00:10:47;98825.75;;;7.57;82.40
59106;BME280;44891;50.204;8.132;2023-05-17T00:14:49;98827.56;;;7.63;82.15
59106;BME280;44891;50.204;8.132;2023-05-17T00:18:51;98834.22;;;7.40;82.80
59106;BME280;44891;50.204;8.132;2023-05-17T00:22:54;98829.59;;;7.35;83.76
59106;BME280;44891;50.204;8.132;2023-05-17T00:26:56;98835.59;;;7.55;83.06
59106;BME280;44891;50.204;8.132;2023-05-17T00:30:57;98837.03;;;7.18;83.88
59106;BME280;44891;50.204;8.132;2023-05-17T00:34:59;98836.00;;;7.13;84.38
59106;BME280;44891;50.204;8.132;2023-05-17T00:39:02;98830.78;;;7.19;83.99
59106;BME280;44891;50.204;8.132;2023-05-17T00:43:04;98839.47;;;7.26;82.87
59106;BME280;44891;50.204;8.132;2023-05-17T00:47:07;98831.00;;;7.18;83.02
59106;BME280;44891;50.204;8.132;2023-05-17T00:51:09;98831.63;;;7.06;82.83
59106;BME280;44891;50.204;8.132;2023-05-17T00:55:13;98836.94;;;6.65;84.42
59106;BME280;44891;50.204;8.132;2023-05-17T00:59:15;98831.50;;;6.53;86.29
59106;BME280;44891;50.204;8.132;2023-05-17T01:03:17;98831.78;;;6.85;84.24
59106;BME280;44891;50.204;8.132;2023-05-17T01:07:22;98835.19;;;6.86;83.65
59106;BME280;44891;50.204;8.132;2023-05-17T01:11:28;98842.41;;;6.84;83.25
59106;BME280;44891;50.204;8.132;2023-05-17T01:15:32;98845.53;;;6.52;83.75
59106;BME280;44891;50.204;8.132;2023-05-17T01:19:49;98850.59;;;6.54;84.55
59106;BME280;44891;50.204;8.132;2023-05-17T01:23:54;98856.75;;;6.46;85.46
59106;BME280;44891;50.204;8.132;2023-05-17T01:28:02;98855.84;;;6.19;86.12
59106;BME280;44891;50.204;8.132;2023-05-17T01:32:04;98861.56;;;5.95;87.68
59106;BME280;44891;50.204;8.132;2023-05-17T01:36:07;98859.13;;;5.93;87.37
59106;BME280;44891;50.204;8.132;2023-05-17T01:40:09;98864.22;;;6.02;86.54
59106;BME280;44891;50.204;8.132;2023-05-17T01:44:14;98866.66;;;6.10;85.60
59106;BME280;44891;50.204;8.132;2023-05-17T01:48:22;98862.38;;;5.95;86.11
59106;BME280;44891;50.204;8.132;2023-05-17T01:52:27;98868.84;;;6.13;84.59
59106;BME280;44891;50.204;8.132;2023-05-17T01:56:32;98871.91;;;5.88;85.96
59106;BME280;44891;50.204;8.132;2023-05-17T02:00:36;98874.81;;;5.72;87.33
59106;BME280;44891;50.204;8.132;2023-05-17T02:04:39;98873.88;;;5.52;88.75
59106;BME280;44891;50.204;8.132;2023-05-17T02:08:40;98874.06;;;5.78;86.62
59106;BME280;44891;50.204;8.132;2023-05-17T02:12:42;98870.16;;;5.67;86.65
59106;BME280;44891;50.204;8.132;2023-05-17T02:16:45;98869.50;;;5.59;86.46
59106;BME280;44891;50.204;8.132;2023-05-17T02:20:47;98876.13;;;5.55;87.09
59106;BME280;44891;50.204;8.132;2023-05-17T02:24:49;98865.69;;;5.33;88.12
59106;BME280;44891;50.204;8.132;2023-05-17T02:28:51;98876.47;;;5.52;87.17
59106;BME280;44891;50.204;8.132;2023-05-17T02:32:54;98877.56;;;5.64;85.99
59106;BME280;44891;50.204;8.132;2023-05-17T02:36:56;98878.41;;;5.43;85.81
59106;BME280;44891;50.204;8.132;2023-05-17T02:40:58;98806.63;;;4.84;90.27
59106;BME280;44891;50.204;8.132;2023-05-17T02:45:00;98883.66;;;5.22;91.59
59106;BME280;44891;50.204;8.132;2023-05-17T02:49:05;98889.66;;;5.22;90.63
59106;BME280;44891;50.204;8.132;2023-05-17T02:53:06;98883.75;;;5.35;90.18
59106;BME280;44891;50.204;8.132;2023-05-17T02:57:08;98884.00;;;5.18;88.41
59106;BME280;44891;50.204;8.132;2023-05-17T03:01:10;98886.97;;;5.37;87.32
59106;BME280;44891;50.204;8.132;2023-05-17T03:05:14;98890.34;;;5.31;90.70
59106;BME280;44891;50.204;8.132;2023-05-17T03:09:21;98888.88;;;5.22;89.64
59106;BME280;44891;50.204;8.132;2023-05-17T03:13:24;98884.56;;;5.14;88.48
59106;BME280;44891;50.204;8.132;2023-05-17T03:17:26;98890.47;;;5.23;87.05
59106;BME280;44891;50.204;8.132;2023-05-17T03:21:30;98895.16;;;5.12;88.25
59106;BME280;44891;50.204;8.132;2023-05-17T03:25:32;98896.53;;;5.08;88.64
59106;BME280;44891;50.204;8.132;2023-05-17T03:29:34;98896.91;;;5.27;87.62
59106;BME280;44891;50.204;8.132;2023-05-17T03:33:36;98898.56;;;5.34;87.53
59106;BME280;44891;50.204;8.132;2023-05-17T03:37:40;98898.44;;;5.21;86.82
59106;BME280;44891;50.204;8.132;2023-05-17T03:41:41;98902.78;;;5.14;86.64
59106;BME280;44891;50.204;8.132;2023-05-17T03:45:44;98908.50;;;5.03;86.81
59106;BME280;44891;50.204;8.132;2023-05-17T03:49:46;98913.81;;;4.95;88.25
59106;BME280;44891;50.204;8.132;2023-05-17T03:53:55;98925.16;;;5.08;88.54
59106;BME280;44891;50.204;8.132;2023-05-17T03:57:58;98919.16;;;5.08;87.85
59106;BME280;44891;50.204;8.132;2023-05-17T04:02:01;98920.78;;;5.09;88.07
59106;BME280;44891;50.204;8.132;2023-05-17T04:06:04;98919.75;;;4.88;89.40
59106;BME280;44891;50.204;8.132;2023-05-17T04:10:09;98927.38;;;4.90;90.42
59106;BME280;44891;50.204;8.132;2023-05-17T04:14:11;98926.06;;;4.79;92.93
59106;BME280;44891;50.204;8.132;2023-05-17T04:18:13;98938.00;;;5.10;91.20
59106;BME280;44891;50.204;8.132;2023-05-17T04:22:15;98946.81;;;5.09;90.48
59106;BME280;44891;50.204;8.132;2023-05-17T04:26:18;98945.75;;;5.25;90.44
59106;BME280;44891;50.204;8.132;2023-05-17T04:30:22;98949.16;;;5.04;90.21
59106;BME280;44891;50.204;8.132;2023-05-17T04:34:24;98955.75;;;5.42;89.78
59106;BME280;44891;50.204;8.132;2023-05-17T04:38:28;98956.09;;;5.61;89.20
59106;BME280;44891;50.204;8.132;2023-05-17T04:42:32;98960.41;;;5.68;89.19
59106;BME280;44891;50.204;8.132;2023-05-17T04:46:34;98959.44;;;5.76;88.69
59106;BME280;44891;50.204;8.132;2023-05-17T04:50:37;98965.56;;;5.90;88.68
59106;BME280;44891;50.204;8.132;2023-05-17T04:54:39;98967.75;;;6.08;88.46
59106;BME280;44891;50.204;8.132;2023-05-17T04:58:42;98982.28;;;6.23;88.01
59106;BME280;44891;50.204;8.132;2023-05-17T05:02:44;98982.47;;;6.22;89.53
59106;BME280;44891;50.204;8.132;2023-05-17T05:06:47;98977.19;;;6.43;89.43
59106;BME280;44891;50.204;8.132;2023-05-17T05:10:49;98987.00;;;6.41;89.86
59106;BME280;44891;50.204;8.132;2023-05-17T05:14:55;98988.66;;;6.49;90.61
59106;BME280;44891;50.204;8.132;2023-05-17T05:18:58;98990.56;;;6.68;90.01
59106;BME280;44891;50.204;8.132;2023-05-17T05:23:01;98996.03;;;6.87;89.25
59106;BME280;44891;50.204;8.132;2023-05-17T05:27:05;98996.06;;;6.93;88.13
59106;BME280;44891;50.204;8.132;2023-05-17T05:31:08;98998.34;;;7.09;88.81
59106;BME280;44891;50.204;8.132;2023-05-17T05:35:17;99009.25;;;7.20;88.13
59106;BME280;44891;50.204;8.132;2023-05-17T05:39:19;99009.66;;;7.30;88.58
59106;BME280;44891;50.204;8.132;2023-05-17T05:43:21;99012.13;;;7.58;87.88
59106;BME280;44891;50.204;8.132;2023-05-17T05:47:25;99019.41;;;7.82;86.94
59106;BME280;44891;50.204;8.132;2023-05-17T05:51:27;99018.63;;;8.02;86.73
59106;BME280;44891;50.204;8.132;2023-05-17T05:55:29;99018.19;;;8.18;86.75
59106;BME280;44891;50.204;8.132;2023-05-17T05:59:31;99024.44;;;8.37;85.20
59106;BME280;44891;50.204;8.132;2023-05-17T06:03:34;99032.28;;;8.50;85.13
59106;BME280;44891;50.204;8.132;2023-05-17T06:07:36;99037.91;;;8.67;84.54
59106;BME280;44891;50.204;8.132;2023-05-17T06:11:38;99033.81;;;8.84;83.34
59106;BME280;44891;50.204;8.132;2023-05-17T06:15:40;99039.41;;;9.01;83.20
59106;BME280;44891;50.204;8.132;2023-05-17T06:19:43;99040.94;;;9.15;82.26
59106;BME280;44891;50.204;8.132;2023-05-17T06:23:44;99055.78;;;9.35;81.17
59106;BME280;44891;50.204;8.132;2023-05-17T06:27:46;99047.66;;;9.43;81.88
59106;BME280;44891;50.204;8.132;2023-05-17T06:31:48;99058.69;;;9.58;80.86
59106;BME280;44891;50.204;8.132;2023-05-17T06:35:51;99060.94;;;9.86;79.87
59106;BME280;44891;50.204;8.132;2023-05-17T06:39:56;99062.84;;;10.04;77.72
59106;BME280;44891;50.204;8.132;2023-05-17T06:44:02;99062.44;;;10.00;76.95
59106;BME280;44891;50.204;8.132;2023-05-17T06:48:04;99066.47;;;10.03;76.38
59106;BME280;44891;50.204;8.132;2023-05-17T06:52:07;99072.91;;;10.07;76.25
59106;BME280;44891;50.204;8.132;2023-05-17T06:56:09;99077.81;;;10.22;76.40
59106;BME280;44891;50.204;8.132;2023-05-17T07:00:11;99070.53;;;10.30;75.42
59106;BME280;44891;50.204;8.132;2023-05-17T07:04:13;99071.13;;;10.32;74.70
59106;BME280;44891;50.204;8.132;2023-05-17T07:08:16;99066.50;;;10.53;75.13
59106;BME280;44891;50.204;8.132;2023-05-17T07:12:18;99075.84;;;10.67;70.35
59106;BME280;44891;50.204;8.132;2023-05-17T07:16:20;99074.69;;;10.63;69.17
59106;BME280;44891;50.204;8.132;2023-05-17T07:20:22;99076.81;;;10.91;69.19
59106;BME280;44891;50.204;8.132;2023-05-17T07:24:25;99078.06;;;11.07;69.82
59106;BME280;44891;50.204;8.132;2023-05-17T07:28:27;99076.88;;;11.21;69.09
59106;BME280;44891;50.204;8.132;2023-05-17T07:32:29;99083.47;;;11.12;69.47
59106;BME280;44891;50.204;8.132;2023-05-17T07:36:31;99077.88;;;11.38;67.41
59106;BME280;44891;50.204;8.132;2023-05-17T07:40:34;99084.88;;;11.44;67.13
59106;BME280;44891;50.204;8.132;2023-05-17T07:44:36;99083.41;;;11.49;66.95
59106;BME280;44891;50.204;8.132;2023-05-17T07:48:37;99086.50;;;11.46;65.78
59106;BME280;44891;50.204;8.132;2023-05-17T07:52:39;99088.06;;;11.65;65.26
59106;BME280;44891;50.204;8.132;2023-05-17T07:56:42;99086.53;;;11.57;64.57
59106;BME280;44891;50.204;8.132;2023-05-17T08:00:44;99087.41;;;11.69;62.78
59106;BME280;44891;50.204;8.132;2023-05-17T08:04:46;99096.28;;;11.87;62.23
59106;BME280;44891;50.204;8.132;2023-05-17T08:08:48;99089.78;;;12.01;61.01
59106;BME280;44891;50.204;8.132;2023-05-17T08:12:51;99099.81;;;12.22;61.20
59106;BME280;44891;50.204;8.132;2023-05-17T08:16:53;99093.09;;;12.62;61.43
59106;BME280;44891;50.204;8.132;2023-05-17T08:20:54;99078.84;;;12.86;60.21
59106;BME280;44891;50.204;8.132;2023-05-17T08:24:57;99076.91;;;12.82;59.80
59106;BME280;44891;50.204;8.132;2023-05-17T08:29:00;99080.69;;;12.74;58.43
59106;BME280;44891;50.204;8.132;2023-05-17T08:33:02;99077.25;;;12.73;58.03
59106;BME280;44891;50.204;8.132;2023-05-17T08:37:04;99082.88;;;12.89;58.21
59106;BME280;44891;50.204;8.132;2023-05-17T08:41:07;99082.06;;;12.65;58.78
59106;BME280;44891;50.204;8.132;2023-05-17T08:45:10;99079.91;;;12.50;58.98
59106;BME280;44891;50.204;8.132;2023-05-17T08:49:13;99081.84;;;12.66;57.99
59106;BME280;44891;50.204;8.132;2023-05-17T08:53:16;99083.34;;;12.62;58.71
59106;BME280;44891;50.204;8.132;2023-05-17T08:57:17;99088.81;;;12.61;58.90
59106;BME280;44891;50.204;8.132;2023-05-17T09:01:21;99090.09;;;12.58;58.33
59106;BME280;44891;50.204;8.132;2023-05-17T09:05:23;99085.16;;;12.38;59.35
59106;BME280;44891;50.204;8.132;2023-05-17T09:09:25;99083.47;;;12.56;59.95
59106;BME280;44891;50.204;8.132;2023-05-17T09:13:27;99076.31;;;12.91;60.02
59106;BME280;44891;50.204;8.132;2023-05-17T09:17:31;99075.28;;;12.92;57.87
59106;BME280;44891;50.204;8.132;2023-05-17T09:21:33;99081.03;;;12.54;56.94
59106;BME280;44891;50.204;8.132;2023-05-17T09:25:35;99077.72;;;12.59;58.77
59106;BME280;44891;50.204;8.132;2023-05-17T09:29:37;99072.66;;;12.92;58.33
59106;BME280;44891;50.204;8.132;2023-05-17T09:33:44;99077.00;;;12.98;56.00
59106;BME280;44891;50.204;8.132;2023-05-17T09:37:46;99071.28;;;12.78;56.99
59106;BME280;44891;50.204;8.132;2023-05-17T09:41:48;99076.31;;;13.03;57.30
59106;BME280;44891;50.204;8.132;2023-05-17T09:45:56;99067.94;;;13.46;55.72
59106;BME280;44891;50.204;8.132;2023-05-17T09:50:00;99078.75;;;13.33;54.53
59106;BME280;44891;50.204;8.132;2023-05-17T09:54:04;99063.47;;;13.92;53.36
59106;BME280;44891;50.204;8.132;2023-05-17T09:58:06;99055.16;;;13.83;51.37
59106;BME280;44891;50.204;8.132;2023-05-17T10:02:08;99059.78;;;13.76;51.54
59106;BME280;44891;50.204;8.132;2023-05-17T10:06:19;99073.06;;;13.24;55.94
59106;BME280;44891;50.204;8.132;2023-05-17T10:10:22;99065.78;;;12.91;56.95
59106;BME280;44891;50.204;8.132;2023-05-17T10:14:25;99064.38;;;13.00;57.20
59106;BME280;44891;50.204;8.132;2023-05-17T10:18:29;99060.53;;;13.60;55.46
59106;BME280;44891;50.204;8.132;2023-05-17T10:22:32;99047.25;;;14.00;54.28
59106;BME280;44891;50.204;8.132;2023-05-17T10:26:34;99043.97;;;13.93;52.52
59106;BME280;44891;50.204;8.132;2023-05-17T10:30:38;99052.06;;;14.20;53.25
59106;BME280;44891;50.204;8.132;2023-05-17T10:34:40;99056.13;;;13.94;53.65
59106;BME280;44891;50.204;8.132;2023-05-17T10:38:43;99052.94;;;13.64;52.65
59106;BME280;44891;50.204;8.132;2023-05-17T10:42:46;99049.94;;;14.05;50.71
59106;BME280;44891;50.204;8.132;2023-05-17T10:46:51;99049.59;;;14.86;49.21
59106;BME280;44891;50.204;8.132;2023-05-17T10:50:54;99038.25;;;14.90;47.92
59106;BME280;44891;50.204;8.132;2023-05-17T10:54:57;99042.59;;;15.45;47.10
59106;BME280;44891;50.204;8.132;2023-05-17T11:03:21;99041.78;;;14.57;44.84
59106;BME280;44891;50.204;8.132;2023-05-17T11:07:28;99037.50;;;14.95;45.10
59106;BME280;44891;50.204;8.132;2023-05-17T11:11:33;99037.59;;;15.49;44.16
59106;BME280;44891;50.204;8.132;2023-05-17T11:15:35;99036.41;;;15.62;42.22
59106;BME280;44891;50.204;8.132;2023-05-17T11:19:37;99034.84;;;15.93;42.91
59106;BME280;44891;50.204;8.132;2023-05-17T11:23:39;99024.44;;;16.18;41.33
59106;BME280;44891;50.204;8.132;2023-05-17T11:27:46;99031.88;;;15.89;42.69
59106;BME280;44891;50.204;8.132;2023-05-17T11:31:50;99029.63;;;16.40;41.62
59106;BME280;44891;50.204;8.132;2023-05-17T11:35:52;99025.38;;;16.39;41.57
59106;BME280;44891;50.204;8.132;2023-05-17T11:40:01;99025.72;;;15.79;41.06
59106;BME280;44891;50.204;8.132;2023-05-17T11:44:05;99035.72;;;15.71;42.92
59106;BME280;44891;50.204;8.132;2023-05-17T11:48:07;99025.56;;;16.27;40.34
59106;BME280;44891;50.204;8.132;2023-05-17T11:52:10;99020.47;;;16.63;40.22
59106;BME280;44891;50.204;8.132;2023-05-17T11:56:12;99022.59;;;16.19;40.91
59106;BME280;44891;50.204;8.132;2023-05-17T12:00:16;99029.09;;;16.38;40.87
59106;BME280;44891;50.204;8.132;2023-05-17T12:04:26;99011.97;;;17.29;39.26
59106;BME280;44891;50.204;8.132;2023-05-17T12:08:28;99012.81;;;17.45;38.70
59106;BME280;44891;50.204;8.132;2023-05-17T12:12:31;99020.22;;;17.32;38.81
59106;BME280;44891;50.204;8.132;2023-05-17T12:16:35;99023.63;;;17.12;39.02
59106;BME280;44891;50.204;8.132;2023-05-17T12:20:37;99022.28;;;17.05;39.17
59106;BME280;44891;50.204;8.132;2023-05-17T12:24:39;99000.66;;;17.74;37.80
59106;BME280;44891;50.204;8.132;2023-05-17T12:28:41;99009.44;;;17.85;36.95
59106;BME280;44891;50.204;8.132;2023-05-17T12:32:45;99011.50;;;17.62;38.23
59106;BME280;44891;50.204;8.132;2023-05-17T12:36:47;99015.41;;;17.14;38.06
59106;BME280;44891;50.204;8.132;2023-05-17T12:40:50;99011.25;;;17.69;38.18
59106;BME280;44891;50.204;8.132;2023-05-17T12:44:51;99009.41;;;17.64;37.12
59106;BME280;44891;50.204;8.132;2023-05-17T12:48:59;99004.84;;;17.55;38.03
59106;BME280;44891;50.204;8.132;2023-05-17T12:53:06;99006.69;;;17.34;38.65
59106;BME280;44891;50.204;8.132;2023-05-17T12:57:08;99000.66;;;17.74;37.99
59106;BME280;44891;50.204;8.132;2023-05-17T13:01:10;99002.25;;;17.80;37.51
59106;BME280;44891;50.204;8.132;2023-05-17T13:05:16;98991.53;;;18.46;36.96
59106;BME280;44891;50.204;8.132;2023-05-17T13:09:18;98990.72;;;18.51;37.64
59106;BME280;44891;50.204;8.132;2023-05-17T13:13:21;98997.19;;;18.30;36.88
59106;BME280;44891;50.204;8.132;2023-05-17T13:17:23;98995.28;;;18.35;36.95
59106;BME280;44891;50.204;8.132;2023-05-17T13:21:27;98995.59;;;18.18;36.17
59106;BME280;44891;50.204;8.132;2023-05-17T13:25:28;98989.38;;;18.48;36.48
59106;BME280;44891;50.204;8.132;2023-05-17T13:29:31;98986.16;;;18.62;36.32
59106;BME280;44891;50.204;8.132;2023-05-17T13:33:33;98986.28;;;18.26;36.97
59106;BME280;44891;50.204;8.132;2023-05-17T13:37:36;98981.44;;;18.43;36.34
59106;BME280;44891;50.204;8.132;2023-05-17T13:41:38;98991.09;;;18.99;35.24
59106;BME280;44891;50.204;8.132;2023-05-17T13:45:41;98982.22;;;19.19;34.82
59106;BME280;44891;50.204;8.132;2023-05-17T13:49:42;98976.00;;;18.89;35.10
59106;BME280;44891;50.204;8.132;2023-05-17T13:53:46;98977.66;;;18.60;34.54
59106;BME280;44891;50.204;8.132;2023-05-17T13:57:48;98957.53;;;18.28;35.59
59106;BME280;44891;50.204;8.132;2023-05-17T14:01:49;98969.81;;;18.14;36.41
59106;BME280;44891;50.204;8.132;2023-05-17T14:05:51;98959.59;;;18.52;35.50
59106;BME280;44891;50.204;8.132;2023-05-17T14:09:55;98964.16;;;18.46;35.40
59106;BME280;44891;50.204;8.132;2023-05-17T14:13:56;98966.56;;;18.42;35.93
59106;BME280;44891;50.204;8.132;2023-05-17T14:18:00;98954.44;;;17.90;36.18
59106;BME280;44891;50.204;8.132;2023-05-17T14:22:01;98957.09;;;17.85;35.91
59106;BME280;44891;50.204;8.132;2023-05-17T14:26:05;98949.19;;;18.55;35.08
59106;BME280;44891;50.204;8.132;2023-05-17T14:30:07;98949.88;;;18.96;34.42
59106;BME280;44891;50.204;8.132;2023-05-17T14:34:09;98946.41;;;18.96;33.91
59106;BME280;44891;50.204;8.132;2023-05-17T14:38:11;98961.84;;;18.94;34.72
59106;BME280;44891;50.204;8.132;2023-05-17T14:42:14;98955.34;;;18.56;35.79
59106;BME280;44891;50.204;8.132;2023-05-17T14:46:16;98947.94;;;18.37;35.99
59106;BME280;44891;50.204;8.132;2023-05-17T14:50:19;98955.13;;;19.01;33.82
59106;BME280;44891;50.204;8.132;2023-05-17T14:54:20;98943.78;;;18.91;33.83
59106;BME280;44891;50.204;8.132;2023-05-17T14:58:24;98944.78;;;19.00;33.68
59106;BME280;44891;50.204;8.132;2023-05-17T15:02:26;98939.78;;;19.33;34.19
59106;BME280;44891;50.204;8.132;2023-05-17T15:06:28;98941.75;;;19.61;32.53
59106;BME280;44891;50.204;8.132;2023-05-17T15:10:30;98943.09;;;19.88;33.01
59106;BME280;44891;50.204;8.132;2023-05-17T15:14:34;98941.00;;;19.85;32.55
59106;BME280;44891;50.204;8.132;2023-05-17T15:18:36;98932.84;;;19.71;33.47
59106;BME280;44891;50.204;8.132;2023-05-17T15:22:38;98922.47;;;19.35;32.63
59106;BME280;44891;50.204;8.132;2023-05-17T15:26:41;98939.28;;;19.25;33.84
59106;BME280;44891;50.204;8.132;2023-05-17T15:30:45;98932.22;;;19.06;34.11
59106;BME280;44891;50.204;8.132;2023-05-17T15:34:47;98937.22;;;18.68;33.98
59106;BME280;44891;50.204;8.132;2023-05-17T15:38:49;98933.75;;;19.17;33.90
59106;BME280;44891;50.204;8.132;2023-05-17T15:42:50;98928.63;;;19.25;33.17
59106;BME280;44891;50.204;8.132;2023-05-17T15:46:54;98931.94;;;19.46;33.79
59106;BME280;44891;50.204;8.132;2023-05-17T15:50:56;98935.97;;;19.44;33.19
59106;BME280;44891;50.204;8.132;2023-05-17T15:54:58;98932.56;;;19.33;34.40
59106;BME280;44891;50.204;8.132;2023-05-17T15:59:00;98933.19;;;19.20;33.92
59106;BME280;44891;50.204;8.132;2023-05-17T16:03:03;98940.34;;;18.80;34.21
59106;BME280;44891;50.204;8.132;2023-05-17T16:07:05;98934.09;;;18.45;34.80
59106;BME280;44891;50.204;8.132;2023-05-17T16:11:07;98941.13;;;17.65;35.98
59106;BME280;44891;50.204;8.132;2023-05-17T16:15:09;98943.78;;;17.60;35.74
59106;BME280;44891;50.204;8.132;2023-05-17T16:19:12;98940.31;;;17.54;36.97
59106;BME280;44891;50.204;8.132;2023-05-17T16:23:14;98941.38;;;17.28;37.50
59106;BME280;44891;50.204;8.132;2023-05-17T16:27:16;98940.03;;;17.25;37.47
59106;BME280;44891;50.204;8.132;2023-05-17T16:31:18;98942.63;;;16.95;38.56
59106;BME280;44891;50.204;8.132;2023-05-17T16:35:21;98946.06;;;16.90;37.86
59106;BME280;44891;50.204;8.132;2023-05-17T16:39:23;98940.50;;;16.87;38.90
59106;BME280;44891;50.204;8.132;2023-05-17T16:43:26;98935.75;;;16.99;37.77
59106;BME280;44891;50.204;8.132;2023-05-17T16:47:28;98938.91;;;16.91;38.45
59106;BME280;44891;50.204;8.132;2023-05-17T16:51:31;98950.44;;;16.59;38.70
59106;BME280;44891;50.204;8.132;2023-05-17T16:55:34;98953.03;;;16.49;38.96
59106;BME280;44891;50.204;8.132;2023-05-17T16:59:36;98955.44;;;16.55;38.70
59106;BME280;44891;50.204;8.132;2023-05-17T17:03:38;98957.63;;;16.69;38.11
59106;BME280;44891;50.204;8.132;2023-05-17T17:07:41;98955.81;;;16.74;38.70
59106;BME280;44891;50.204;8.132;2023-05-17T17:11:45;98954.25;;;16.78;38.00
59106;BME280;44891;50.204;8.132;2023-05-17T17:15:47;98950.66;;;16.47;37.70
59106;BME280;44891;50.204;8.132;2023-05-17T17:19:50;98955.91;;;16.42;39.29
59106;BME280;44891;50.204;8.132;2023-05-17T17:23:54;98950.34;;;16.39;39.50
59106;BME280;44891;50.204;8.132;2023-05-17T17:27:56;98956.69;;;16.33;39.52
59106;BME280;44891;50.204;8.132;2023-05-17T17:31:58;98949.16;;;16.14;39.79
59106;BME280;44891;50.204;8.132;2023-05-17T17:36:00;98951.72;;;15.99;39.40
59106;BME280;44891;50.204;8.132;2023-05-17T17:40:03;98963.91;;;16.00;39.63
59106;BME280;44891;50.204;8.132;2023-05-17T17:44:05;98964.66;;;15.95;40.19
59106;BME280;44891;50.204;8.132;2023-05-17T17:48:07;98962.31;;;15.99;40.53
59106;BME280;44891;50.204;8.132;2023-05-17T17:52:09;98970.88;;;16.16;40.92
59106;BME280;44891;50.204;8.132;2023-05-17T17:56:12;98968.25;;;16.21;40.46
59106;BME280;44891;50.204;8.132;2023-05-17T18:00:14;98973.53;;;16.16;40.25
59106;BME280;44891;50.204;8.132;2023-05-17T18:04:16;98975.56;;;15.99;40.87
59106;BME280;44891;50.204;8.132;2023-05-17T18:08:18;98975.47;;;15.89;40.20
59106;BME280;44891;50.204;8.132;2023-05-17T18:12:21;98983.31;;;15.73;42.20
59106;BME280;44891;50.204;8.132;2023-05-17T18:16:26;98984.25;;;15.35;43.34
59106;BME280;44891;50.204;8.132;2023-05-17T18:20:28;98993.13;;;15.24;44.26
59106;BME280;44891;50.204;8.132;2023-05-17T18:24:30;98994.63;;;15.15;44.98
59106;BME280;44891;50.204;8.132;2023-05-17T18:28:33;98998.88;;;14.94;44.87
59106;BME280;44891;50.204;8.132;2023-05-17T18:32:36;98999.19;;;14.76;45.48
59106;BME280;44891;50.204;8.132;2023-05-17T18:36:38;99009.22;;;14.74;45.76
59106;BME280;44891;50.204;8.132;2023-05-17T18:40:40;99009.34;;;14.62;46.80
59106;BME280;44891;50.204;8.132;2023-05-17T18:44:43;99001.56;;;14.38;47.05
59106;BME280;44891;50.204;8.132;2023-05-17T18:48:45;99013.78;;;14.23;47.92
59106;BME280;44891;50.204;8.132;2023-05-17T18:52:47;99017.16;;;14.01;47.52
59106;BME280;44891;50.204;8.132;2023-05-17T18:56:49;99023.06;;;13.75;48.35
59106;BME280;44891;50.204;8.132;2023-05-17T19:00:52;99018.72;;;13.69;47.53
59106;BME280;44891;50.204;8.132;2023-05-17T19:04:54;99026.75;;;13.45;47.84
59106;BME280;44891;50.204;8.132;2023-05-17T19:08:57;99030.47;;;13.32;48.31
59106;BME280;44891;50.204;8.132;2023-05-17T19:12:59;99033.38;;;13.19;48.62
59106;BME280;44891;50.204;8.132;2023-05-17T19:17:02;99035.59;;;12.99;48.94
59106;BME280;44891;50.204;8.132;2023-05-17T19:21:04;99037.25;;;12.88;49.56
59106;BME280;44891;50.204;8.132;2023-05-17T19:25:06;99040.59;;;12.72;50.42
59106;BME280;44891;50.204;8.132;2023-05-17T19:29:08;99041.88;;;12.58;50.92
59106;BME280;44891;50.204;8.132;2023-05-17T19:33:11;99050.34;;;12.48;50.86
59106;BME280;44891;50.204;8.132;2023-05-17T19:37:13;99055.38;;;12.26;50.99
59106;BME280;44891;50.204;8.132;2023-05-17T19:41:15;99058.47;;;12.11;50.97
59106;BME280;44891;50.204;8.132;2023-05-17T19:45:16;99063.34;;;11.96;51.55
59106;BME280;44891;50.204;8.132;2023-05-17T19:49:20;99069.44;;;11.96;51.38
59106;BME280;44891;50.204;8.132;2023-05-17T19:53:21;99070.41;;;11.84;51.79
59106;BME280;44891;50.204;8.132;2023-05-17T19:57:23;99083.88;;;11.76;51.55
59106;BME280;44891;50.204;8.132;2023-05-17T20:01:25;99083.47;;;11.60;51.81
59106;BME280;44891;50.204;8.132;2023-05-17T20:05:28;99084.44;;;11.48;52.36
59106;BME280;44891;50.204;8.132;2023-05-17T20:09:30;99089.44;;;11.37;52.64
59106;BME280;44891;50.204;8.132;2023-05-17T20:13:32;99096.44;;;11.25;52.89
59106;BME280;44891;50.204;8.132;2023-05-17T20:17:39;99106.16;;;11.25;53.04
59106;BME280;44891;50.204;8.132;2023-05-17T20:21:42;99103.03;;;11.16;53.71
59106;BME280;44891;50.204;8.132;2023-05-17T20:25:44;99100.91;;;11.06;55.07
59106;BME280;44891;50.204;8.132;2023-05-17T20:29:46;99103.91;;;11.10;56.31
59106;BME280;44891;50.204;8.132;2023-05-17T20:33:48;99110.53;;;10.94;57.53
59106;BME280;44891;50.204;8.132;2023-05-17T20:37:52;99110.44;;;10.64;59.37
59106;BME280;44891;50.204;8.132;2023-05-17T20:41:54;99115.25;;;10.42;60.36
59106;BME280;44891;50.204;8.132;2023-05-17T20:45:56;99118.16;;;10.34;60.21
59106;BME280;44891;50.204;8.132;2023-05-17T20:49:59;99120.06;;;10.20;61.03
59106;BME280;44891;50.204;8.132;2023-05-17T20:54:02;99119.47;;;10.18;61.46
59106;BME280;44891;50.204;8.132;2023-05-17T20:58:05;99122.03;;;9.93;62.39
59106;BME280;44891;50.204;8.132;2023-05-17T21:02:07;99124.31;;;9.83;63.62
59106;BME280;44891;50.204;8.132;2023-05-17T21:06:09;99126.59;;;9.73;63.57
59106;BME280;44891;50.204;8.132;2023-05-17T21:10:12;99125.72;;;9.47;64.59
59106;BME280;44891;50.204;8.132;2023-05-17T21:14:14;99123.81;;;9.10;66.38
59106;BME280;44891;50.204;8.132;2023-05-17T21:18:15;99126.03;;;9.19;66.34
59106;BME280;44891;50.204;8.132;2023-05-17T21:22:17;99129.25;;;9.15;66.63
59106;BME280;44891;50.204;8.132;2023-05-17T21:26:20;99130.88;;;9.09;67.28
59106;BME280;44891;50.204;8.132;2023-05-17T21:30:22;99137.78;;;8.77;68.21
59106;BME280;44891;50.204;8.132;2023-05-17T21:34:24;99128.53;;;8.81;68.12
59106;BME280;44891;50.204;8.132;2023-05-17T21:38:26;99138.41;;;8.73;68.55